createdAt,value
2019-05-07T00:01:15.419Z,20.80
2019-05-07T00:03:42.694Z,19.70
2019-05-07T00:06:12.246Z,21.75
2019-05-07T00:08:39.145Z,23.18
2019-05-07T00:11:06.943Z,20.32
2019-05-07T00:13:33.897Z,21.77
2019-05-07T00:16:02.451Z,23.73
2019-05-07T00:18:32.007Z,20.80
2019-05-07T00:20:58.822Z,20.77
2019-05-07T00:23:26.236Z,23.10
2019-05-07T00:25:53.254Z,26.87
2019-05-07T00:28:20.195Z,22.62
2019-05-07T00:30:47.087Z,19.25
2019-05-07T00:33:14.115Z,20.12
2019-05-07T00:35:45.800Z,16.95
2019-05-07T00:38:15.067Z,17.32
2019-05-07T00:40:46.431Z,20.17
2019-05-07T00:43:18.243Z,18.57
2019-05-07T00:45:50.195Z,22.62
2019-05-07T00:48:17.257Z,18.05
2019-05-07T00:50:46.377Z,17.57
2019-05-07T00:53:13.936Z,18.95
2019-05-07T00:55:42.387Z,20.68
2019-05-07T00:58:09.613Z,18.07
2019-05-07T01:00:37.539Z,15.93
2019-05-07T01:03:04.799Z,20.15
2019-05-07T01:05:32.622Z,18.30
2019-05-07T01:08:02.361Z,21.30
2019-05-07T01:10:29.401Z,21.37
2019-05-07T01:12:58.915Z,14.33
2019-05-07T01:15:30.973Z,15.90
2019-05-07T01:17:55.166Z,18.75
2019-05-07T01:20:22.557Z,15.88
2019-05-07T01:22:49.812Z,20.85
2019-05-07T01:25:17.626Z,20.95
2019-05-07T01:27:44.874Z,18.15
2019-05-07T01:30:13.020Z,17.92
2019-05-07T01:32:47.814Z,19.35
2019-05-07T01:35:23.305Z,19.60
2019-05-07T01:37:52.436Z,17.77
2019-05-07T01:40:19.955Z,19.67
2019-05-07T01:42:47.083Z,18.20
2019-05-07T01:45:15.407Z,19.02
2019-05-07T01:47:42.601Z,17.95
2019-05-07T01:50:13.202Z,14.60
2019-05-07T01:52:39.795Z,13.43
2019-05-07T01:55:07.747Z,14.73
2019-05-07T01:57:35.455Z,14.05
2019-05-07T02:00:06.103Z,14.00
2019-05-07T02:02:35.211Z,14.90
2019-05-07T02:05:13.231Z,13.53
2019-05-07T02:07:42.975Z,18.02
2019-05-07T02:10:25.500Z,17.25
2019-05-07T02:12:53.093Z,17.67
2019-05-07T02:15:22.518Z,14.00
2019-05-07T02:17:49.844Z,19.50
2019-05-07T02:20:17.234Z,14.70
2019-05-07T02:22:44.635Z,12.40
2019-05-07T02:25:12.772Z,18.17
2019-05-07T02:27:42.070Z,14.53
2019-05-07T02:30:09.801Z,15.08
2019-05-07T02:32:36.787Z,17.27
2019-05-07T02:35:04.650Z,15.30
2019-05-07T02:37:46.494Z,13.85
2019-05-07T02:40:14.471Z,17.40
2019-05-07T02:42:44.241Z,16.45
2019-05-07T02:45:13.450Z,19.60
2019-05-07T02:47:43.778Z,18.12
2019-05-07T02:50:26.740Z,13.30
2019-05-07T02:52:58.715Z,12.70
2019-05-07T02:55:27.881Z,15.70
2019-05-07T02:57:55.383Z,15.05
2019-05-07T03:00:24.083Z,17.95
2019-05-07T03:02:53.086Z,19.48
2019-05-07T03:05:22.960Z,19.80
2019-05-07T03:07:49.991Z,18.85
2019-05-07T03:10:17.287Z,16.23
2019-05-07T03:12:44.680Z,24.92
2019-05-07T03:15:13.326Z,20.23
2019-05-07T03:17:42.936Z,15.90
2019-05-07T03:20:13.875Z,15.65
2019-05-07T03:22:42.807Z,20.40
2019-05-07T03:25:15.282Z,19.40
2019-05-07T03:27:43.229Z,17.42
2019-05-07T03:30:16.646Z,18.07
2019-05-07T03:32:56.131Z,18.40
2019-05-07T03:35:27.551Z,17.37
2019-05-07T03:37:54.833Z,18.77
2019-05-07T03:40:23.113Z,16.02
2019-05-07T03:42:53.211Z,16.90
2019-05-07T03:45:23.078Z,19.25
2019-05-07T03:47:54.180Z,21.00
2019-05-07T03:50:23.377Z,17.25
2019-05-07T03:52:50.674Z,16.93
2019-05-07T03:55:17.926Z,19.85
2019-05-07T03:57:45.123Z,19.80
2019-05-07T04:00:13.409Z,21.02
2019-05-07T04:02:43.913Z,14.75
2019-05-07T04:05:14.011Z,15.00
2019-05-07T04:07:43.005Z,18.20
2019-05-07T04:10:14.473Z,20.55
2019-05-07T04:12:40.399Z,20.68
2019-05-07T04:15:08.250Z,18.27
2019-05-07T04:17:35.499Z,17.82
2019-05-07T04:20:06.586Z,18.23
2019-05-07T04:22:34.840Z,19.73
2019-05-07T04:25:13.181Z,27.60
2019-05-07T04:27:52.745Z,22.45
2019-05-07T04:30:23.535Z,20.85
2019-05-07T04:32:53.138Z,19.35
2019-05-07T04:35:24.991Z,18.82
2019-05-07T04:37:53.298Z,17.35
2019-05-07T04:40:23.692Z,18.32
2019-05-07T04:42:49.624Z,16.12
2019-05-07T04:45:16.944Z,23.95
2019-05-07T04:47:47.887Z,16.25
2019-05-07T04:50:32.884Z,18.30
2019-05-07T04:52:43.983Z,16.48
2019-05-07T04:55:13.805Z,16.95
2019-05-07T04:57:43.522Z,17.82
2019-05-07T05:00:13.305Z,22.85
2019-05-07T05:02:58.389Z,18.27
2019-05-07T05:05:25.911Z,19.17
2019-05-07T05:07:53.654Z,16.67
2019-05-07T05:10:22.999Z,19.67
2019-05-07T05:12:53.392Z,16.82
2019-05-07T05:15:22.057Z,21.82
2019-05-07T05:17:51.489Z,18.30
2019-05-07T05:20:19.682Z,19.77
2019-05-07T05:22:48.687Z,15.45
2019-05-07T05:25:36.987Z,20.68
2019-05-07T05:28:04.289Z,18.65
2019-05-07T05:30:37.123Z,17.80
2019-05-07T05:33:04.478Z,21.87
2019-05-07T05:35:32.165Z,15.90
2019-05-07T05:37:59.484Z,19.12
2019-05-07T05:40:26.512Z,15.43
2019-05-07T05:43:03.434Z,15.30
2019-05-07T05:45:35.025Z,12.37
2019-05-07T05:48:07.434Z,13.25
2019-05-07T05:50:53.753Z,14.00
2019-05-07T05:53:38.038Z,14.45
2019-05-07T05:56:09.471Z,14.00
2019-05-07T05:58:52.696Z,15.15
2019-05-07T06:01:38.368Z,12.13
2019-05-07T06:04:07.266Z,14.18
2019-05-07T06:06:39.127Z,11.33
2019-05-07T06:09:12.217Z,11.35
2019-05-07T06:11:46.859Z,9.08
2019-05-07T06:14:22.262Z,9.30
2019-05-07T06:16:54.026Z,10.98
2019-05-07T06:19:22.607Z,11.73
2019-05-07T06:22:06.951Z,10.58
2019-05-07T06:24:40.049Z,10.15
2019-05-07T06:27:07.136Z,9.60
2019-05-07T06:29:34.145Z,11.70
2019-05-07T06:32:03.592Z,9.85
2019-05-07T06:34:30.395Z,11.35
2019-05-07T06:36:57.961Z,11.73
2019-05-07T06:39:27.055Z,12.58
2019-05-07T06:42:02.153Z,10.80
2019-05-07T06:44:29.128Z,11.30
2019-05-07T06:46:56.199Z,9.63
2019-05-07T06:49:23.199Z,9.13
2019-05-07T06:51:52.658Z,10.55
2019-05-07T06:54:19.126Z,11.12
2019-05-07T06:56:48.742Z,9.53
2019-05-07T06:59:16.934Z,9.68
2019-05-07T07:01:52.934Z,9.03
2019-05-07T07:04:22.611Z,9.00
2019-05-07T07:06:52.364Z,8.93
2019-05-07T07:09:18.862Z,10.00
2019-05-07T07:11:52.780Z,8.83
2019-05-07T07:14:19.915Z,8.35
2019-05-07T07:16:46.907Z,9.10
2019-05-07T07:19:14.135Z,9.05
2019-05-07T07:21:42.160Z,8.25
2019-05-07T07:24:09.548Z,11.25
2019-05-07T07:26:36.593Z,11.63
2019-05-07T07:29:04.445Z,8.10
2019-05-07T07:31:39.278Z,10.32
2019-05-07T07:34:07.353Z,10.85
2019-05-07T07:36:42.398Z,9.53
2019-05-07T07:39:09.848Z,9.90
2019-05-07T07:41:38.859Z,7.15
2019-05-07T07:44:06.398Z,10.20
2019-05-07T07:46:33.399Z,7.33
2019-05-07T07:49:07.997Z,9.58
2019-05-07T07:51:40.600Z,11.70
2019-05-07T07:53:58.319Z,10.78
2019-05-07T07:56:27.876Z,10.45
2019-05-07T07:59:02.011Z,11.10
2019-05-07T08:01:43.631Z,13.62
2019-05-07T08:04:12.230Z,12.30
2019-05-07T08:06:41.826Z,9.48
2019-05-07T08:09:09.432Z,8.70
2019-05-07T08:11:36.736Z,9.03
2019-05-07T08:14:06.083Z,9.50
2019-05-07T08:16:33.417Z,8.65
2019-05-07T08:19:03.093Z,10.68
2019-05-07T08:21:33.030Z,10.32
2019-05-07T08:23:59.432Z,11.18
2019-05-07T08:26:26.843Z,9.80
2019-05-07T08:28:53.932Z,9.38
2019-05-07T08:31:38.471Z,10.88
2019-05-07T08:34:14.066Z,8.45
2019-05-07T08:36:42.090Z,9.60
2019-05-07T08:39:09.477Z,11.30
2019-05-07T08:41:36.428Z,7.67
2019-05-07T08:44:12.302Z,7.12
2019-05-07T08:46:42.195Z,5.90
2019-05-07T08:49:12.105Z,9.05
2019-05-07T08:51:39.471Z,7.25
2019-05-07T08:54:06.737Z,7.53
2019-05-07T08:56:37.332Z,6.17
2019-05-07T08:59:05.969Z,8.45
2019-05-07T09:01:34.872Z,6.25
2019-05-07T09:04:02.589Z,8.05
2019-05-07T09:06:33.028Z,7.12
2019-05-07T09:09:08.205Z,9.60
2019-05-07T09:11:35.387Z,6.75
2019-05-07T09:14:02.594Z,6.37
2019-05-07T09:16:31.808Z,5.87
2019-05-07T09:18:58.547Z,5.50
2019-05-07T09:21:25.744Z,6.25
2019-05-07T09:23:52.847Z,7.60
2019-05-07T09:26:22.365Z,8.35
2019-05-07T09:29:08.000Z,6.33
2019-05-07T09:31:37.236Z,6.60
2019-05-07T09:34:04.320Z,5.75
2019-05-07T09:36:33.344Z,7.12
2019-05-07T09:39:02.676Z,6.17
2019-05-07T09:41:29.392Z,7.42
2019-05-07T09:43:57.183Z,7.03
2019-05-07T09:46:25.091Z,5.95
2019-05-07T09:48:52.413Z,8.13
2019-05-07T09:51:19.731Z,9.15
2019-05-07T09:53:46.988Z,9.75
2019-05-07T09:56:14.187Z,10.25
2019-05-07T09:58:42.598Z,9.80
2019-05-07T10:01:12.393Z,6.42
2019-05-07T10:03:39.177Z,7.90
2019-05-07T10:06:06.550Z,9.70
2019-05-07T10:08:33.735Z,10.00
2019-05-07T10:11:02.777Z,13.22
2019-05-07T10:13:30.160Z,10.68
2019-05-07T10:15:58.005Z,7.35
2019-05-07T10:18:25.283Z,8.55
2019-05-07T10:20:53.053Z,8.03
2019-05-07T10:23:22.950Z,8.70
2019-05-07T10:25:52.300Z,9.18
2019-05-07T10:28:22.676Z,8.65
2019-05-07T10:30:52.084Z,10.18
2019-05-07T10:33:19.975Z,11.15
2019-05-07T10:35:47.475Z,8.75
2019-05-07T10:38:14.984Z,9.50
2019-05-07T10:40:42.301Z,9.03
2019-05-07T10:43:09.505Z,11.65
2019-05-07T10:45:53.320Z,21.70
2019-05-07T10:48:25.571Z,25.57
2019-05-07T10:50:55.052Z,22.13
2019-05-07T10:53:22.962Z,27.22
2019-05-07T10:55:50.185Z,35.40
2019-05-07T10:58:17.682Z,25.62
2019-05-07T11:00:44.873Z,16.67
2019-05-07T11:03:12.642Z,16.62
2019-05-07T11:05:41.904Z,8.90
2019-05-07T11:08:09.760Z,9.50
2019-05-07T11:10:36.706Z,7.33
2019-05-07T11:13:03.844Z,7.67
2019-05-07T11:15:32.727Z,7.00
2019-05-07T11:18:21.718Z,9.75
2019-05-07T11:20:50.475Z,8.35
2019-05-07T11:23:17.797Z,8.33
2019-05-07T11:25:45.085Z,8.40
2019-05-07T11:28:12.504Z,8.70
2019-05-07T11:30:42.646Z,12.68
2019-05-07T11:33:09.778Z,8.23
2019-05-07T11:35:36.980Z,10.23
2019-05-07T11:38:17.764Z,11.80
2019-05-07T11:40:34.890Z,8.38
2019-05-07T11:43:13.067Z,7.90
2019-05-07T11:45:48.604Z,10.65
2019-05-07T11:48:17.603Z,8.43
2019-05-07T11:51:03.748Z,10.53
2019-05-07T11:53:30.055Z,10.20
2019-05-07T11:55:57.271Z,15.00
2019-05-07T11:58:24.195Z,16.82
2019-05-07T12:00:51.509Z,11.22
2019-05-07T12:03:18.734Z,12.78
2019-05-07T12:05:46.504Z,11.83
2019-05-07T12:08:13.757Z,17.27
2019-05-07T12:10:40.897Z,16.77
2019-05-07T12:13:07.981Z,12.98
2019-05-07T12:15:36.512Z,13.80
2019-05-07T12:18:03.899Z,11.75
2019-05-07T12:20:32.416Z,12.03
2019-05-07T12:22:59.895Z,11.10
2019-05-07T12:25:28.743Z,15.60
2019-05-07T12:27:55.990Z,8.68
2019-05-07T12:30:35.162Z,7.47
2019-05-07T12:33:18.939Z,9.40
2019-05-07T12:35:46.055Z,10.35
2019-05-07T12:38:13.186Z,11.60
2019-05-07T12:40:41.965Z,8.98
2019-05-07T12:43:10.582Z,24.92
2019-05-07T12:45:38.026Z,26.97
2019-05-07T12:48:05.220Z,9.93
2019-05-07T12:50:32.837Z,17.87
2019-05-07T12:53:08.570Z,26.80
2019-05-07T12:55:49.433Z,11.03
2019-05-07T12:58:16.338Z,19.92
2019-05-07T13:00:54.513Z,18.23
2019-05-07T13:03:27.838Z,18.77
2019-05-07T13:05:55.149Z,36.48
2019-05-07T13:08:23.043Z,30.25
2019-05-07T13:10:51.876Z,34.55
2019-05-07T13:13:19.521Z,30.35
2019-05-07T13:15:46.650Z,27.02
2019-05-07T13:18:13.884Z,36.17
2019-05-07T13:20:41.358Z,57.20
2019-05-07T13:23:08.361Z,30.97
2019-05-07T13:25:35.782Z,29.10
2019-05-07T13:28:03.142Z,48.38
2019-05-07T13:30:30.423Z,50.85
2019-05-07T13:32:58.377Z,50.23
2019-05-07T13:35:26.239Z,52.50
2019-05-07T13:38:02.416Z,37.48
2019-05-07T13:40:35.878Z,48.80
2019-05-07T13:43:15.645Z,45.65
2019-05-07T13:45:44.631Z,38.95
2019-05-07T13:48:18.266Z,24.27
2019-05-07T13:50:45.615Z,35.48
2019-05-07T13:53:13.702Z,25.88
2019-05-07T13:55:42.366Z,17.90
2019-05-07T13:58:09.567Z,16.85
2019-05-07T14:00:44.421Z,21.42
2019-05-07T14:03:12.113Z,19.05
2019-05-07T14:05:39.487Z,17.62
2019-05-07T14:08:07.149Z,11.05
2019-05-07T14:10:34.525Z,14.53
2019-05-07T14:13:11.157Z,34.05
2019-05-07T14:15:32.093Z,13.85
2019-05-07T14:18:02.118Z,16.07
2019-05-07T14:20:29.163Z,13.48
2019-05-07T14:22:56.447Z,9.23
2019-05-07T14:25:24.120Z,11.40
2019-05-07T14:27:52.628Z,10.53
2019-05-07T14:30:21.689Z,12.07
2019-05-07T14:32:54.567Z,11.00
2019-05-07T14:35:22.712Z,9.23
2019-05-07T14:37:52.356Z,8.93
2019-05-07T14:40:19.772Z,9.35
2019-05-07T14:42:54.465Z,10.80
2019-05-07T14:45:23.764Z,10.82
2019-05-07T14:47:52.281Z,15.43
2019-05-07T14:50:19.991Z,13.48
2019-05-07T14:52:47.096Z,13.10
2019-05-07T14:55:14.701Z,17.15
2019-05-07T14:57:42.224Z,14.95
2019-05-07T15:00:12.210Z,19.30
2019-05-07T15:02:41.944Z,18.57
2019-05-07T15:05:09.055Z,17.65
2019-05-07T15:07:36.237Z,16.27
2019-05-07T15:10:06.179Z,16.90
2019-05-07T15:12:33.386Z,17.95
2019-05-07T15:15:02.170Z,14.75
2019-05-07T15:17:32.567Z,13.38
2019-05-07T15:20:00.039Z,20.70
2019-05-07T15:22:49.095Z,18.67
2019-05-07T15:25:12.354Z,21.97
2019-05-07T15:27:39.696Z,65.08
2019-05-07T15:30:07.576Z,78.05
2019-05-07T15:32:34.769Z,65.67
2019-05-07T15:35:03.501Z,55.80
2019-05-07T15:37:32.227Z,70.75
2019-05-07T15:40:02.234Z,58.75
2019-05-07T15:42:29.214Z,111.00
2019-05-07T15:44:56.683Z,54.58
2019-05-07T15:47:28.725Z,22.45
2019-05-07T15:49:55.746Z,20.17
2019-05-07T15:52:34.027Z,61.35
2019-05-07T15:55:02.727Z,16.00
2019-05-07T15:57:29.993Z,15.93
2019-05-07T16:00:05.189Z,44.63
2019-05-07T16:02:40.270Z,50.83
2019-05-07T16:05:07.884Z,65.27
2019-05-07T16:07:35.805Z,37.63
2019-05-07T16:10:03.883Z,85.90
2019-05-07T16:12:32.039Z,93.55
2019-05-07T16:14:59.347Z,30.37
2019-05-07T16:17:28.984Z,18.07
2019-05-07T16:19:56.098Z,20.23
2019-05-07T16:22:27.987Z,25.48
2019-05-07T16:24:55.102Z,12.00
2019-05-07T16:27:22.500Z,11.05
2019-05-07T16:29:49.720Z,8.23
2019-05-07T16:32:17.058Z,14.25
2019-05-07T16:34:44.082Z,17.27
2019-05-07T16:37:12.308Z,14.93
2019-05-07T16:39:39.578Z,20.88
2019-05-07T16:42:06.709Z,14.23
2019-05-07T16:44:33.956Z,10.80
2019-05-07T16:47:02.671Z,14.00
2019-05-07T16:49:31.720Z,14.83
2019-05-07T16:51:58.698Z,18.00
2019-05-07T16:54:26.227Z,17.65
2019-05-07T16:57:12.173Z,13.45
2019-05-07T16:59:39.629Z,12.58
2019-05-07T17:02:08.597Z,15.28
2019-05-07T17:04:35.396Z,24.55
2019-05-07T17:07:04.514Z,27.67
2019-05-07T17:09:32.264Z,34.85
2019-05-07T17:12:02.497Z,38.65
2019-05-07T17:14:29.793Z,29.37
2019-05-07T17:16:56.814Z,42.03
2019-05-07T17:19:23.761Z,35.78
2019-05-07T17:21:52.033Z,28.95
2019-05-07T17:24:19.221Z,41.50
2019-05-07T17:26:46.168Z,57.25
2019-05-07T17:29:13.247Z,79.30
2019-05-07T17:31:42.255Z,82.22
2019-05-07T17:34:09.202Z,89.65
2019-05-07T17:36:36.079Z,77.15
2019-05-07T17:39:05.801Z,110.12
2019-05-07T17:41:33.183Z,81.57
2019-05-07T17:44:02.430Z,91.20
2019-05-07T17:46:28.871Z,102.58
2019-05-07T17:48:55.895Z,174.50
2019-05-07T17:51:43.015Z,170.68
2019-05-07T17:54:13.225Z,133.95
2019-05-07T17:56:42.183Z,106.70
2019-05-07T17:59:12.004Z,114.05
2019-05-07T18:01:57.203Z,129.03
2019-05-07T18:04:24.163Z,182.62
2019-05-07T18:06:52.229Z,115.85
2019-05-07T18:09:19.651Z,72.40
2019-05-07T18:11:46.860Z,58.70
2019-05-07T18:14:13.880Z,55.85
2019-05-07T18:16:48.803Z,75.08
2019-05-07T18:19:15.936Z,74.10
2019-05-07T18:21:42.878Z,76.80
2019-05-07T18:24:13.564Z,79.85
2019-05-07T18:26:38.823Z,78.92
2019-05-07T18:29:05.817Z,106.20
2019-05-07T18:31:50.183Z,186.10
2019-05-07T18:34:17.082Z,119.72
2019-05-07T18:36:44.501Z,116.03
2019-05-07T18:39:11.608Z,129.68
2019-05-07T18:41:38.635Z,114.85
2019-05-07T18:44:12.475Z,93.07
2019-05-07T18:46:34.649Z,88.25
2019-05-07T18:49:03.349Z,82.97
2019-05-07T18:51:32.181Z,82.70
2019-05-07T18:53:59.347Z,84.85
2019-05-07T18:56:26.583Z,87.88
2019-05-07T18:58:53.527Z,80.57
2019-05-07T19:01:22.607Z,92.72
2019-05-07T19:03:49.994Z,87.22
2019-05-07T19:06:17.170Z,82.37
2019-05-07T19:08:46.477Z,89.30
2019-05-07T19:11:13.649Z,90.17
2019-05-07T19:13:42.015Z,84.90
2019-05-07T19:16:09.293Z,81.75
2019-05-07T19:18:36.404Z,81.17
2019-05-07T19:21:06.669Z,76.12
2019-05-07T19:23:33.094Z,72.53
2019-05-07T19:26:02.343Z,61.98
2019-05-07T19:28:29.248Z,60.85
2019-05-07T19:30:56.424Z,53.25
2019-05-07T19:33:27.004Z,51.75
2019-05-07T19:35:52.932Z,46.88
2019-05-07T19:38:20.103Z,47.03
2019-05-07T19:40:47.275Z,92.97
2019-05-07T19:43:14.400Z,98.52
2019-05-07T19:45:41.896Z,95.95
2019-05-07T19:48:08.977Z,87.25
2019-05-07T19:50:36.219Z,86.20
2019-05-07T19:53:03.439Z,81.12
2019-05-07T19:55:32.921Z,76.10
2019-05-07T19:58:01.945Z,79.20
2019-05-07T20:00:29.143Z,79.15
2019-05-07T20:02:58.484Z,79.62
2019-05-07T20:05:25.753Z,83.90
2019-05-07T20:07:56.137Z,84.30
2019-05-07T20:10:29.859Z,83.22
2019-05-07T20:12:56.924Z,87.35
2019-05-07T20:15:24.132Z,79.37
2019-05-07T20:17:52.640Z,82.00
2019-05-07T20:20:22.018Z,79.37
2019-05-07T20:22:49.141Z,85.17
2019-05-07T20:25:19.098Z,93.22
2019-05-07T20:27:45.035Z,103.32
2019-05-07T20:30:12.357Z,103.45
2019-05-07T20:32:39.617Z,115.32
2019-05-07T20:35:06.927Z,92.78
2019-05-07T20:37:33.999Z,87.15
2019-05-07T20:40:02.990Z,89.65
2019-05-07T20:42:32.211Z,84.50
2019-05-07T20:44:59.305Z,91.70
2019-05-07T20:47:27.064Z,101.47
2019-05-07T20:49:55.345Z,100.22
2019-05-07T20:52:22.923Z,103.17
2019-05-07T20:54:52.800Z,102.25
2019-05-07T20:57:22.502Z,99.28
2019-05-07T20:59:49.575Z,113.62
2019-05-07T21:02:16.533Z,113.00
2019-05-07T21:04:43.372Z,105.90
2019-05-07T21:07:11.885Z,92.27
2019-05-07T21:09:38.995Z,84.15
2019-05-07T21:12:06.313Z,80.05
2019-05-07T21:14:33.792Z,84.07
2019-05-07T21:17:00.906Z,89.77
2019-05-07T21:19:28.061Z,85.38
2019-05-07T21:21:55.258Z,84.77
2019-05-07T21:24:22.701Z,84.60
2019-05-07T21:26:49.999Z,81.92
2019-05-07T21:29:17.191Z,67.72
2019-05-07T21:31:44.196Z,65.57
2019-05-07T21:34:12.380Z,70.00
2019-05-07T21:36:39.844Z,59.40
2019-05-07T21:39:06.997Z,58.58
2019-05-07T21:41:33.932Z,59.45
2019-05-07T21:44:00.839Z,56.55
2019-05-07T21:46:28.075Z,52.65
2019-05-07T21:48:55.093Z,55.08
2019-05-07T21:51:22.839Z,49.48
2019-05-07T21:53:54.857Z,48.10
2019-05-07T21:56:23.657Z,43.85
2019-05-07T21:58:54.148Z,49.10
2019-05-07T22:01:26.517Z,42.88
2019-05-07T22:03:56.107Z,45.33
2019-05-07T22:06:23.650Z,42.30
2019-05-07T22:08:54.458Z,40.70
2019-05-07T22:11:19.798Z,38.83
2019-05-07T22:13:46.859Z,45.38
2019-05-07T22:16:14.003Z,48.92
2019-05-07T22:18:42.629Z,50.20
2019-05-07T22:21:12.349Z,47.10
2019-05-07T22:23:38.995Z,48.20
2019-05-07T22:26:19.010Z,48.35
2019-05-07T22:28:35.714Z,47.50
2019-05-07T22:31:05.686Z,49.40
2019-05-07T22:33:34.617Z,54.18
2019-05-07T22:36:02.869Z,53.38
2019-05-07T22:38:32.204Z,48.17
2019-05-07T22:40:58.876Z,41.15
2019-05-07T22:43:25.814Z,47.80
2019-05-07T22:45:52.861Z,43.42
2019-05-07T22:48:19.775Z,45.25
2019-05-07T22:50:46.786Z,46.25
2019-05-07T22:53:14.220Z,42.88
2019-05-07T22:55:41.883Z,46.37
2019-05-07T22:58:12.350Z,42.75
2019-05-07T23:00:42.758Z,35.45
2019-05-07T23:03:12.347Z,41.20
2019-05-07T23:05:39.743Z,40.90
2019-05-07T23:08:06.866Z,43.08
2019-05-07T23:10:34.073Z,44.08
2019-05-07T23:13:02.262Z,45.55
2019-05-07T23:15:29.501Z,43.15
2019-05-07T23:17:56.747Z,51.45
2019-05-07T23:20:24.480Z,45.12
2019-05-07T23:22:52.091Z,45.55
2019-05-07T23:25:19.207Z,44.88
2019-05-07T23:27:46.147Z,42.67
2019-05-07T23:30:13.545Z,39.23
2019-05-07T23:32:40.658Z,42.10
2019-05-07T23:35:12.634Z,42.03
2019-05-07T23:37:39.588Z,41.65
2019-05-07T23:40:25.563Z,40.92
2019-05-07T23:42:54.484Z,45.03
2019-05-07T23:45:22.166Z,40.03
2019-05-07T23:47:49.160Z,44.77
2019-05-07T23:50:16.338Z,43.98
2019-05-07T23:52:44.174Z,47.80
2019-05-07T23:55:12.204Z,46.92
2019-05-07T23:57:39.295Z,39.38
